Time;durP1;ratioP1;P1;durP2;ratioP2;P2;SDS_P1;SDS_P2;PMS_P1;PMS_P2;Temp;Humidity;BMP_temperature;BMP_pressure;BME280_temperature;BME280_humidity;BME280_pressure;Samples;Min_cycle;Max_cycle;Signal;HPM_P1;HPM_P2
2023/09/16 00:01:41;;;;;;;102.40;55.55;;;19.10;91.90;;;;;;4933417;28;86679;-76
2023/09/16 00:04:08;;;;;;;103.60;56.47;;;19.00;91.60;;;;;;4939217;28;86144;-78
2023/09/16 00:06:34;;;;;;;104.97;55.95;;;19.10;91.70;;;;;;4940060;28;85003;-78
2023/09/16 00:09:00;;;;;;;103.47;56.30;;;19.00;91.80;;;;;;4946222;28;84734;-76
2023/09/16 00:11:25;;;;;;;103.85;55.97;;;19.00;91.80;;;;;;4937191;28;84956;-78
2023/09/16 00:13:51;;;;;;;100.93;55.47;;;19.00;92.00;;;;;;4933690;28;85069;-79
2023/09/16 00:16:17;;;;;;;102.18;55.75;;;19.00;91.80;;;;;;4938238;28;89397;-80
2023/09/16 00:18:42;;;;;;;101.97;55.63;;;19.00;91.90;;;;;;4935740;28;86252;-78
2023/09/16 00:21:10;;;;;;;101.63;55.72;;;19.00;91.80;;;;;;4938016;28;85275;-79
2023/09/16 00:23:36;;;;;;;101.95;55.85;;;19.00;91.70;;;;;;4933259;28;87245;-79
2023/09/16 00:26:03;;;;;;;101.60;55.45;;;19.00;91.90;;;;;;4942127;28;85590;-78
2023/09/16 00:28:29;;;;;;;101.55;55.10;;;18.90;91.90;;;;;;4932562;28;85262;-79
2023/09/16 00:30:55;;;;;;;102.82;55.90;;;18.90;91.80;;;;;;4939712;28;86408;-79
2023/09/16 00:33:20;;;;;;;103.05;55.70;;;18.90;91.90;;;;;;4934052;28;84631;-78
2023/09/16 00:35:46;;;;;;;104.38;56.15;;;18.90;91.80;;;;;;4944426;28;85476;-78
2023/09/16 00:38:15;;;;;;;100.38;55.15;;;18.90;92.00;;;;;;4931726;28;85059;-79
2023/09/16 00:40:41;;;;;;;104.18;55.67;;;18.90;91.80;;;;;;4940855;28;86260;-79
2023/09/16 00:43:06;;;;;;;103.43;55.88;;;18.80;91.80;;;;;;4957366;28;85035;-79
2023/09/16 00:45:33;;;;;;;102.75;55.75;;;18.80;91.80;;;;;;4951330;28;84948;-76
2023/09/16 00:47:59;;;;;;;102.78;56.20;;;18.80;91.90;;;;;;4953435;28;87131;-78
2023/09/16 00:50:25;;;;;;;102.30;55.63;;;18.80;91.70;;;;;;4928771;28;85264;-78
2023/09/16 00:52:55;;;;;;;103.15;55.95;;;18.80;91.80;;;;;;4937803;28;85516;-78
2023/09/16 00:55:21;;;;;;;101.88;55.80;;;18.80;91.70;;;;;;4935002;28;89403;-79
2023/09/16 00:57:50;;;;;;;103.60;56.17;;;18.80;91.70;;;;;;4938595;28;85352;-79
2023/09/16 01:00:16;;;;;;;102.18;56.13;;;18.80;91.90;;;;;;4930010;28;85074;-78
2023/09/16 01:02:45;;;;;;;101.65;55.88;;;18.70;91.90;;;;;;4946363;28;85409;-76
2023/09/16 01:05:15;;;;;;;101.15;55.38;;;18.70;91.80;;;;;;4936342;28;84731;-79
2023/09/16 01:07:41;;;;;;;102.30;56.25;;;18.70;91.70;;;;;;4933103;28;85459;-79
2023/09/16 01:10:10;;;;;;;102.30;55.83;;;18.70;91.90;;;;;;4940818;28;84876;-78
2023/09/16 01:12:37;;;;;;;101.65;55.85;;;18.70;92.00;;;;;;4933228;28;85728;-79
2023/09/16 01:15:05;;;;;;;101.18;55.38;;;18.70;92.00;;;;;;4938756;28;84382;-79
2023/09/16 01:17:34;;;;;;;101.53;55.67;;;18.70;92.00;;;;;;4939076;28;85221;-79
2023/09/16 01:20:06;;;;;;;101.90;56.35;;;18.60;92.00;;;;;;4932189;28;85789;-80
2023/09/16 01:22:33;;;;;;;101.38;55.58;;;18.60;92.10;;;;;;4936197;28;87044;-77
2023/09/16 01:25:05;;;;;;;102.55;55.72;;;18.60;91.90;;;;;;4932531;28;86115;-79
2023/09/16 01:27:31;;;;;;;101.95;55.90;;;18.60;92.00;;;;;;4939403;28;85314;-78
2023/09/16 01:29:58;;;;;;;103.40;56.17;;;18.60;92.10;;;;;;4929142;28;88019;-77
2023/09/16 01:32:30;;;;;;;101.85;55.83;;;18.50;92.10;;;;;;4936417;28;85105;-78
2023/09/16 01:35:04;;;;;;;101.65;55.70;;;18.60;92.10;;;;;;4931338;28;86456;-79
2023/09/16 01:37:30;;;;;;;102.82;55.72;;;18.50;92.10;;;;;;4937091;28;86498;-78
2023/09/16 01:39:57;;;;;;;102.80;55.67;;;18.50;92.20;;;;;;4935198;28;85273;-79
2023/09/16 01:42:26;;;;;;;102.05;55.90;;;18.50;92.10;;;;;;4940821;28;85681;-79
2023/09/16 01:44:55;;;;;;;102.35;55.85;;;18.50;92.20;;;;;;4940253;28;84554;-79
2023/09/16 01:47:21;;;;;;;102.25;56.08;;;18.50;92.10;;;;;;4933204;28;84834;-79
2023/09/16 01:49:47;;;;;;;103.00;56.15;;;18.40;92.10;;;;;;4937932;28;85707;-77
2023/09/16 01:52:16;;;;;;;102.28;55.90;;;18.40;92.10;;;;;;4932702;28;86679;-79
2023/09/16 01:54:42;;;;;;;103.95;56.03;;;18.40;92.20;;;;;;4939805;28;86057;-79
2023/09/16 01:57:07;;;;;;;102.55;55.95;;;18.40;92.10;;;;;;4933929;28;87012;-79
2023/09/16 01:59:33;;;;;;;102.53;55.72;;;18.40;92.30;;;;;;4938965;28;85330;-76
2023/09/16 02:01:58;;;;;;;102.75;55.83;;;18.40;92.30;;;;;;4933972;28;85084;-78
2023/09/16 02:04:24;;;;;;;101.20;55.78;;;18.40;92.20;;;;;;4935655;28;85140;-77
2023/09/16 02:06:49;;;;;;;101.65;55.75;;;18.40;92.10;;;;;;4935725;28;86043;-80
2023/09/16 02:09:16;;;;;;;102.20;55.97;;;18.40;92.00;;;;;;4930669;28;85804;-78
2023/09/16 02:11:41;;;;;;;102.30;56.17;;;18.30;92.30;;;;;;4938173;28;84468;-80
2023/09/16 02:14:16;;;;;;;101.18;56.13;;;18.30;92.10;;;;;;4932766;28;88914;-77
2023/09/16 02:16:43;;;;;;;102.68;55.83;;;18.30;92.40;;;;;;4937818;28;86199;-79
2023/09/16 02:19:09;;;;;;;102.03;56.03;;;18.30;92.20;;;;;;4931145;28;89317;-78
2023/09/16 02:21:35;;;;;;;102.00;55.47;;;18.20;92.20;;;;;;4933071;28;86357;-79
2023/09/16 02:24:00;;;;;;;102.90;56.47;;;18.30;92.20;;;;;;4935959;28;86976;-80
2023/09/16 02:26:26;;;;;;;103.00;56.03;;;18.20;92.20;;;;;;4955588;28;84809;-78
2023/09/16 02:28:51;;;;;;;102.63;55.83;;;18.20;92.30;;;;;;4929536;28;87217;-78
2023/09/16 02:31:17;;;;;;;101.43;55.63;;;18.20;92.30;;;;;;4930606;28;85575;-79
2023/09/16 02:33:43;;;;;;;103.05;56.13;;;18.20;92.30;;;;;;4935284;28;84907;-78
2023/09/16 02:36:08;;;;;;;102.10;55.88;;;18.20;92.20;;;;;;4936267;28;85320;-79
2023/09/16 02:38:34;;;;;;;101.13;55.55;;;18.20;92.10;;;;;;4934747;28;85183;-78
2023/09/16 02:41:04;;;;;;;103.50;56.00;;;18.20;92.40;;;;;;4937405;28;86098;-79
2023/09/16 02:43:30;;;;;;;101.40;55.50;;;18.20;92.30;;;;;;4936632;28;84159;-79
2023/09/16 02:45:56;;;;;;;101.45;55.50;;;18.10;92.10;;;;;;4931500;28;85308;-79
2023/09/16 02:48:22;;;;;;;101.72;55.42;;;18.10;92.60;;;;;;4937676;28;87483;-78
2023/09/16 02:50:47;;;;;;;101.50;56.28;;;18.10;92.30;;;;;;4930934;28;85681;-78
2023/09/16 02:53:13;;;;;;;102.25;56.03;;;18.10;92.30;;;;;;4954314;28;84410;-79
2023/09/16 02:55:39;;;;;;;100.55;55.60;;;18.10;92.60;;;;;;4940782;28;86460;-79
2023/09/16 02:58:06;;;;;;;101.72;55.97;;;18.10;92.60;;;;;;4937470;28;85489;-78
2023/09/16 03:00:32;;;;;;;101.55;55.75;;;18.10;92.40;;;;;;4946559;28;85639;-77
2023/09/16 03:02:58;;;;;;;101.60;55.75;;;18.10;92.40;;;;;;4938758;28;85738;-75
2023/09/16 03:05:23;;;;;;;102.50;56.28;;;18.00;92.30;;;;;;4937679;28;85584;-79
2023/09/16 03:07:49;;;;;;;101.90;56.20;;;18.00;92.50;;;;;;4931873;28;87311;-79
2023/09/16 03:10:15;;;;;;;104.53;56.28;;;18.00;92.50;;;;;;4936065;28;85317;-79
2023/09/16 03:12:41;;;;;;;101.50;56.03;;;18.00;92.20;;;;;;4930695;28;85696;-79
2023/09/16 03:15:07;;;;;;;102.43;55.90;;;18.00;92.30;;;;;;4938958;28;85753;-78
2023/09/16 03:17:32;;;;;;;102.22;55.67;;;18.00;92.20;;;;;;4934541;28;86491;-79
2023/09/16 03:19:58;;;;;;;102.43;56.08;;;18.00;92.20;;;;;;4930862;28;85209;-78
2023/09/16 03:22:24;;;;;;;103.88;55.80;;;18.00;92.50;;;;;;4934695;28;84645;-78
2023/09/16 03:24:49;;;;;;;101.60;55.65;;;17.90;92.30;;;;;;4937685;28;86127;-79
2023/09/16 03:27:15;;;;;;;101.28;55.65;;;17.90;92.20;;;;;;4933471;28;86247;-79
2023/09/16 03:29:41;;;;;;;101.30;55.78;;;17.90;92.20;;;;;;4937268;28;89479;-79
2023/09/16 03:32:06;;;;;;;100.90;55.70;;;17.90;92.30;;;;;;4934259;28;84998;-79
2023/09/16 03:34:32;;;;;;;101.30;55.70;;;17.90;92.50;;;;;;4938204;28;86426;-79
2023/09/16 03:36:59;;;;;;;100.63;55.45;;;17.90;92.40;;;;;;4932739;28;85883;-79
2023/09/16 03:39:24;;;;;;;102.03;56.28;;;17.90;92.30;;;;;;4941203;28;88336;-78
2023/09/16 03:41:50;;;;;;;100.40;55.22;;;17.80;92.30;;;;;;4939685;28;85433;-79
2023/09/16 03:44:16;;;;;;;102.30;56.00;;;17.80;92.30;;;;;;4934633;28;85606;-76
2023/09/16 03:46:41;;;;;;;101.90;56.33;;;17.80;92.30;;;;;;4940536;28;86231;-80
2023/09/16 03:49:08;;;;;;;102.38;56.15;;;17.80;92.30;;;;;;4934177;28;86018;-78
2023/09/16 03:51:34;;;;;;;100.00;55.20;;;17.80;92.40;;;;;;4948566;28;85091;-79
2023/09/16 03:54:00;;;;;;;100.80;55.47;;;17.80;92.40;;;;;;4933544;28;87073;-79
2023/09/16 03:56:26;;;;;;;100.25;55.50;;;17.80;92.50;;;;;;4940539;28;86006;-80
2023/09/16 03:58:52;;;;;;;100.85;55.83;;;17.80;92.30;;;;;;4936072;28;85463;-79
2023/09/16 04:01:17;;;;;;;101.68;55.95;;;17.80;92.50;;;;;;4938896;28;85416;-79
2023/09/16 04:03:43;;;;;;;102.45;56.25;;;17.80;92.60;;;;;;4936417;28;85898;-79
2023/09/16 04:06:09;;;;;;;100.93;56.03;;;17.70;92.40;;;;;;4937689;28;87027;-79
2023/09/16 04:08:36;;;;;;;100.53;55.53;;;17.70;92.40;;;;;;4935079;28;84841;-78
2023/09/16 04:11:01;;;;;;;101.40;55.75;;;17.70;92.40;;;;;;4954968;28;85125;-78
2023/09/16 04:13:27;;;;;;;99.93;55.10;;;17.80;92.60;;;;;;4940102;28;84752;-78
2023/09/16 04:15:53;;;;;;;101.13;55.30;;;17.70;92.30;;;;;;4936105;28;85270;-75
2023/09/16 04:18:19;;;;;;;101.78;55.58;;;17.70;92.50;;;;;;4931765;28;85538;-78
2023/09/16 04:20:48;;;;;;;103.43;55.75;;;17.70;92.60;;;;;;4950035;22;86186;-45
2023/09/16 04:23:14;;;;;;;100.70;55.63;;;17.70;92.50;;;;;;4957749;28;87097;-44
2023/09/16 04:25:39;;;;;;;102.35;55.95;;;17.70;92.60;;;;;;4955363;28;85406;-44
2023/09/16 04:28:05;;;;;;;101.18;56.08;;;17.70;92.40;;;;;;4959588;28;87592;-45
2023/09/16 04:30:34;;;;;;;101.75;55.53;;;17.70;92.50;;;;;;4949813;28;87179;-43
2023/09/16 04:32:59;;;;;;;101.15;55.70;;;17.60;92.50;;;;;;4961716;28;86132;-45
2023/09/16 04:35:26;;;;;;;100.72;55.85;;;17.60;92.40;;;;;;4950401;28;85386;-46
2023/09/16 04:37:51;;;;;;;100.68;55.80;;;17.60;92.40;;;;;;4953992;28;85905;-45
2023/09/16 04:40:17;;;;;;;100.90;55.70;;;17.60;92.30;;;;;;4961884;28;86072;-45
2023/09/16 04:42:42;;;;;;;101.68;56.53;;;17.60;92.40;;;;;;4955844;28;89267;-46
2023/09/16 04:45:08;;;;;;;101.28;55.72;;;17.60;92.50;;;;;;4955491;28;89675;-44
2023/09/16 04:47:34;;;;;;;100.95;55.58;;;17.60;92.40;;;;;;4959341;28;86167;-45
2023/09/16 04:50:00;;;;;;;102.60;55.70;;;17.60;92.40;;;;;;4960219;28;86127;-44
2023/09/16 04:52:27;;;;;;;101.93;56.00;;;17.60;92.40;;;;;;4948685;28;85607;-47
2023/09/16 04:54:54;;;;;;;101.85;55.72;;;17.60;92.50;;;;;;4956560;28;86589;-46
2023/09/16 04:57:20;;;;;;;102.20;56.85;;;17.50;92.50;;;;;;4953808;28;85018;-45
2023/09/16 04:59:46;;;;;;;101.80;56.70;;;17.60;92.50;;;;;;4951596;28;85975;-45
2023/09/16 05:02:12;;;;;;;101.50;56.30;;;17.50;92.70;;;;;;4946189;28;85398;-46
2023/09/16 05:04:38;;;;;;;101.53;56.30;;;17.50;92.60;;;;;;4954620;28;86098;-46
2023/09/16 05:07:04;;;;;;;103.38;56.83;;;17.50;92.50;;;;;;4951674;28;86159;-45
2023/09/16 05:09:30;;;;;;;101.03;56.45;;;17.50;92.60;;;;;;4960101;28;85204;-46
2023/09/16 05:11:57;;;;;;;103.13;56.28;;;17.50;92.40;;;;;;4949435;28;88070;-46
2023/09/16 05:14:24;;;;;;;101.68;56.00;;;17.50;92.50;;;;;;4954188;28;85662;-45
2023/09/16 05:16:49;;;;;;;100.38;55.45;;;17.50;92.50;;;;;;4952886;28;85206;-44
2023/09/16 05:19:15;;;;;;;105.13;56.83;;;17.50;92.30;;;;;;4948698;28;85962;-44
2023/09/16 05:21:41;;;;;;;102.32;56.42;;;17.50;92.50;;;;;;4956064;28;86636;-43
2023/09/16 05:24:07;;;;;;;102.22;56.47;;;17.50;92.70;;;;;;4952156;28;85591;-43
2023/09/16 05:26:32;;;;;;;101.57;56.22;;;17.40;92.60;;;;;;4952888;28;87636;-43
2023/09/16 05:28:58;;;;;;;101.65;56.28;;;17.40;92.50;;;;;;4949672;28;85862;-44
2023/09/16 05:31:24;;;;;;;102.15;56.92;;;17.50;92.50;;;;;;4956039;28;85638;-43
2023/09/16 05:33:52;;;;;;;102.80;56.78;;;17.40;92.50;;;;;;4949594;28;85887;-44
2023/09/16 05:36:18;;;;;;;102.72;56.55;;;17.40;92.30;;;;;;4957788;28;85755;-43
2023/09/16 05:38:44;;;;;;;102.47;56.85;;;17.50;92.50;;;;;;4951527;28;85229;-43
2023/09/16 05:41:10;;;;;;;102.28;56.05;;;17.50;92.40;;;;;;4963930;28;86650;-43
2023/09/16 05:43:35;;;;;;;103.68;56.85;;;17.50;92.70;;;;;;4955034;28;85154;-45
2023/09/16 05:46:01;;;;;;;102.57;57.10;;;17.40;92.50;;;;;;4950456;28;84794;-43
2023/09/16 05:48:28;;;;;;;102.97;56.47;;;17.40;92.50;;;;;;4956519;28;85723;-44
2023/09/16 05:50:58;;;;;;;103.15;56.42;;;17.40;92.30;;;;;;4941792;28;85248;-43
2023/09/16 05:53:24;;;;;;;101.95;56.80;;;17.40;92.40;;;;;;4953264;28;85312;-43
2023/09/16 05:55:51;;;;;;;101.57;56.78;;;17.40;92.50;;;;;;4947445;28;87407;-43
2023/09/16 05:58:17;;;;;;;101.22;56.03;;;17.40;92.20;;;;;;4953350;28;86484;-44
2023/09/16 06:00:42;;;;;;;105.65;56.78;;;17.40;92.10;;;;;;4947391;28;85972;-43
2023/09/16 06:03:09;;;;;;;104.55;56.47;;;17.50;92.70;;;;;;4957548;28;86111;-44
2023/09/16 06:05:34;;;;;;;102.28;56.83;;;17.50;92.80;;;;;;4949654;28;86321;-45
2023/09/16 06:08:00;;;;;;;103.57;56.90;;;17.50;92.30;;;;;;4953223;28;85903;-43
2023/09/16 06:10:26;;;;;;;101.22;55.67;;;17.50;92.10;;;;;;4947777;28;89557;-44
2023/09/16 06:12:52;;;;;;;103.07;58.40;;;17.50;92.50;;;;;;4945680;28;87151;-41
2023/09/16 06:15:18;;;;;;;103.38;57.75;;;17.00;90.50;;;;;;4954419;28;87176;-42
2023/09/16 06:17:44;;;;;;;103.38;58.65;;;16.50;92.30;;;;;;4942944;28;85645;-41
2023/09/16 06:20:09;;;;;;;105.55;58.63;;;16.30;93.00;;;;;;4951253;28;86266;-40
2023/09/16 06:22:35;;;;;;;106.75;58.72;;;16.10;94.20;;;;;;4953485;28;89700;-41
2023/09/16 06:25:01;;;;;;;104.90;58.83;;;15.90;95.00;;;;;;4955091;28;85118;-41
2023/09/16 06:27:27;;;;;;;106.10;58.90;;;16.00;95.40;;;;;;4946486;28;86955;-42
2023/09/16 06:29:53;;;;;;;103.93;58.72;;;16.00;95.00;;;;;;4941093;28;87905;-42
2023/09/16 06:32:19;;;;;;;105.45;59.38;;;16.10;95.50;;;;;;4923054;28;85875;-43
2023/09/16 06:34:45;;;;;;;102.65;58.22;;;16.00;95.70;;;;;;4926780;28;85591;-41
2023/09/16 06:37:10;;;;;;;103.57;58.13;;;16.20;95.80;;;;;;4931215;28;88643;-42
2023/09/16 06:39:37;;;;;;;105.40;58.63;;;16.20;95.40;;;;;;4950227;28;86294;-41
2023/09/16 06:42:04;;;;;;;104.25;58.67;;;16.30;94.90;;;;;;4949182;28;85021;-40
2023/09/16 06:44:30;;;;;;;104.45;58.55;;;16.30;95.00;;;;;;4946016;28;86035;-41
2023/09/16 06:46:56;;;;;;;105.00;57.97;;;16.30;95.00;;;;;;4963209;28;85231;-42
2023/09/16 06:49:22;;;;;;;104.75;58.72;;;16.40;94.70;;;;;;4946216;28;85055;-42
2023/09/16 06:51:47;;;;;;;106.30;59.10;;;16.40;94.70;;;;;;4955876;28;85907;-41
2023/09/16 06:54:13;;;;;;;108.25;58.33;;;16.50;95.60;;;;;;4948115;28;86611;-41
2023/09/16 06:56:39;;;;;;;107.43;58.80;;;16.50;95.20;;;;;;4955545;28;84833;-40
2023/09/16 06:59:04;;;;;;;107.00;58.35;;;16.60;94.80;;;;;;4947927;28;87431;-41
2023/09/16 07:01:30;;;;;;;104.88;58.33;;;16.70;94.70;;;;;;4940578;28;86761;-41
2023/09/16 07:03:57;;;;;;;105.95;59.33;;;16.80;94.40;;;;;;4947621;28;90650;-41
2023/09/16 07:06:23;;;;;;;112.65;59.38;;;16.80;94.10;;;;;;4949377;28;85764;-41
2023/09/16 07:08:48;;;;;;;106.35;59.28;;;16.90;94.30;;;;;;4941850;28;85959;-41
2023/09/16 07:11:15;;;;;;;105.13;58.10;;;16.90;94.30;;;;;;4942963;28;86198;-43
2023/09/16 07:13:40;;;;;;;109.60;59.05;;;17.10;94.10;;;;;;4958969;28;85431;-41
2023/09/16 07:16:06;;;;;;;108.53;59.00;;;17.30;93.20;;;;;;4945792;28;89475;-41
2023/09/16 07:18:32;;;;;;;109.57;58.33;;;17.40;92.90;;;;;;4942446;28;85201;-42
2023/09/16 07:20:57;;;;;;;108.18;59.15;;;17.60;93.40;;;;;;4943907;28;88135;-41
2023/09/16 07:23:23;;;;;;;107.90;59.35;;;17.70;92.60;;;;;;4947869;28;85148;-41
2023/09/16 07:25:59;;;;;;;111.07;59.47;;;17.60;91.80;;;;;;4947817;28;85672;-41
2023/09/16 07:28:27;;;;;;;109.72;59.28;;;17.60;92.30;;;;;;4949014;28;85440;-42
2023/09/16 07:30:53;;;;;;;112.15;61.22;;;17.80;91.80;;;;;;4953289;28;85136;-42
2023/09/16 07:33:18;;;;;;;113.72;62.75;;;17.80;92.20;;;;;;4945470;28;86721;-44
2023/09/16 07:35:44;;;;;;;119.30;63.88;;;18.00;92.10;;;;;;4951811;28;85132;-44
2023/09/16 07:38:10;;;;;;;114.28;61.70;;;18.10;91.50;;;;;;4948287;28;87311;-45
2023/09/16 07:40:38;;;;;;;116.03;61.50;;;18.00;91.90;;;;;;4946192;28;85638;-44
2023/09/16 07:43:07;;;;;;;110.85;60.28;;;18.00;92.20;;;;;;4943860;28;86563;-45
2023/09/16 07:45:32;;;;;;;110.38;59.47;;;18.30;92.50;;;;;;4949241;28;85773;-44
2023/09/16 07:47:58;;;;;;;110.03;59.70;;;18.50;91.30;;;;;;4945257;28;90090;-42
2023/09/16 07:50:24;;;;;;;111.68;59.58;;;18.60;91.10;;;;;;4940134;28;86061;-43
2023/09/16 07:52:49;;;;;;;110.72;59.17;;;18.60;91.70;;;;;;4949999;28;87052;-43
2023/09/16 07:55:15;;;;;;;110.25;58.80;;;18.80;91.50;;;;;;4947247;28;87009;-43
2023/09/16 07:57:40;;;;;;;112.63;59.75;;;19.00;90.70;;;;;;4954595;28;86660;-41
2023/09/16 08:00:07;;;;;;;109.72;59.58;;;19.20;90.00;;;;;;4940356;28;86786;-44
2023/09/16 08:02:33;;;;;;;110.63;59.05;;;19.20;88.00;;;;;;4942187;28;85737;-43
2023/09/16 08:04:59;;;;;;;108.78;59.55;;;19.20;89.50;;;;;;4940891;28;85537;-42
2023/09/16 08:07:25;;;;;;;109.35;60.17;;;19.50;90.10;;;;;;4950847;28;85171;-41
2023/09/16 08:09:51;;;;;;;108.95;59.03;;;19.50;88.90;;;;;;4944316;28;85900;-40
2023/09/16 08:12:17;;;;;;;108.10;59.50;;;19.50;89.00;;;;;;4953911;28;84651;-43
2023/09/16 08:14:43;;;;;;;113.20;59.85;;;19.60;87.00;;;;;;4945972;28;85761;-42
2023/09/16 08:17:09;;;;;;;109.70;59.47;;;19.60;88.90;;;;;;4949802;28;88352;-42
2023/09/16 08:19:34;;;;;;;109.30;59.25;;;19.70;89.80;;;;;;4940503;28;85297;-43
2023/09/16 08:22:00;;;;;;;109.57;58.78;;;19.70;89.20;;;;;;4951789;28;85567;-44
2023/09/16 08:24:26;;;;;;;111.30;59.15;;;19.70;89.90;;;;;;4951062;28;85092;-43
2023/09/16 08:26:52;;;;;;;111.25;60.08;;;19.90;90.10;;;;;;4950470;28;85153;-44
2023/09/16 08:29:18;;;;;;;109.93;59.08;;;20.10;88.90;;;;;;4951271;28;85234;-45
2023/09/16 08:31:43;;;;;;;110.22;59.15;;;20.10;88.20;;;;;;4954939;28;85405;-46
2023/09/16 08:34:09;;;;;;;110.72;59.67;;;20.10;87.90;;;;;;4954152;28;86328;-46
2023/09/16 08:36:35;;;;;;;109.07;59.40;;;20.20;89.10;;;;;;4953891;28;86200;-45
2023/09/16 08:39:00;;;;;;;112.43;59.50;;;20.20;87.70;;;;;;4950246;28;84959;-44
2023/09/16 08:41:59;;;;;;;112.10;59.65;;;20.20;87.60;;;;;;4942908;28;85985;-44
2023/09/16 08:44:28;;;;;;;106.55;58.70;;;20.30;89.00;;;;;;4952464;28;84980;-43
2023/09/16 08:47:10;;;;;;;108.70;58.90;;;20.30;88.40;;;;;;4945994;28;86232;-44
2023/09/16 08:49:45;;;;;;;107.55;58.65;;;20.50;88.70;;;;;;4920532;28;86133;-45
2023/09/16 08:52:16;;;;;;;121.00;59.13;;;20.50;88.80;;;;;;4923841;28;90873;-44
2023/09/16 08:54:44;;;;;;;109.60;57.72;;;20.70;88.40;;;;;;4955372;28;86819;-43
2023/09/16 08:57:12;;;;;;;108.03;58.58;;;20.80;88.00;;;;;;4946158;28;90499;-43
2023/09/16 08:59:40;;;;;;;109.07;58.22;;;20.90;86.70;;;;;;4945756;28;85792;-44
2023/09/16 09:02:09;;;;;;;109.90;58.47;;;20.90;85.80;;;;;;4944591;28;86708;-46
2023/09/16 09:04:35;;;;;;;110.18;58.92;;;21.00;86.50;;;;;;4939289;28;86213;-46
2023/09/16 09:07:02;;;;;;;109.63;59.00;;;21.10;86.30;;;;;;4949469;28;85260;-46
2023/09/16 09:09:29;;;;;;;112.70;58.80;;;21.10;85.40;;;;;;4949203;28;85172;-47
2023/09/16 09:11:57;;;;;;;110.32;59.40;;;21.20;85.70;;;;;;4945875;28;89589;-47
2023/09/16 09:14:23;;;;;;;108.72;58.92;;;21.20;85.30;;;;;;4942613;28;85893;-46
2023/09/16 09:16:51;;;;;;;110.25;58.97;;;21.30;84.90;;;;;;4950984;28;86055;-46
2023/09/16 09:19:20;;;;;;;109.82;59.05;;;21.30;85.10;;;;;;4945069;28;88278;-46
2023/09/16 09:21:47;;;;;;;108.45;58.53;;;21.40;84.80;;;;;;4953169;28;86288;-47
2023/09/16 09:24:13;;;;;;;113.47;59.15;;;21.50;84.60;;;;;;4945971;28;87235;-46
2023/09/16 09:26:38;;;;;;;110.80;59.25;;;21.50;84.50;;;;;;4951269;28;85215;-46
2023/09/16 09:29:09;;;;;;;112.20;59.20;;;21.60;83.50;;;;;;4948396;28;85719;-45
2023/09/16 09:31:36;;;;;;;115.43;58.65;;;21.60;83.80;;;;;;4942268;28;85351;-47
2023/09/16 09:34:02;;;;;;;109.80;58.85;;;21.80;82.70;;;;;;4951470;28;87022;-47
2023/09/16 09:36:30;;;;;;;110.45;59.50;;;21.90;81.80;;;;;;4945470;28;88346;-47
2023/09/16 09:38:57;;;;;;;110.63;59.40;;;21.90;81.20;;;;;;4948386;28;87314;-47
2023/09/16 09:41:23;;;;;;;112.78;59.72;;;22.00;81.70;;;;;;4942390;28;87023;-46
2023/09/16 09:43:52;;;;;;;110.43;59.28;;;22.00;80.90;;;;;;4949568;28;85392;-47
2023/09/16 09:46:20;;;;;;;110.63;58.97;;;22.10;81.10;;;;;;4947840;28;86797;-45
2023/09/16 09:48:46;;;;;;;110.70;59.58;;;22.10;81.80;;;;;;4947720;28;85564;-46
2023/09/16 09:51:16;;;;;;;110.43;58.97;;;22.20;80.20;;;;;;4953224;28;86779;-47
2023/09/16 09:53:43;;;;;;;110.43;59.00;;;22.20;78.70;;;;;;4946996;28;87141;-45
2023/09/16 09:56:11;;;;;;;111.05;59.08;;;22.30;80.00;;;;;;4958681;28;85481;-49
2023/09/16 09:58:37;;;;;;;111.22;58.75;;;22.30;80.00;;;;;;4946077;28;86424;-46
2023/09/16 10:01:02;;;;;;;109.97;58.67;;;22.40;77.80;;;;;;4946783;28;85155;-48
2023/09/16 10:03:28;;;;;;;112.28;58.58;;;22.40;77.00;;;;;;4942862;28;86799;-54
2023/09/16 10:05:55;;;;;;;108.50;58.17;;;22.50;76.60;;;;;;4946323;28;88543;-50
2023/09/16 10:08:21;;;;;;;109.55;58.13;;;22.50;76.90;;;;;;4950494;28;86182;-48
2023/09/16 10:10:47;;;;;;;110.50;58.45;;;22.60;76.80;;;;;;4940425;28;88178;-46
2023/09/16 10:13:14;;;;;;;112.30;59.20;;;22.70;73.80;;;;;;4953558;28;85510;-48
2023/09/16 10:15:40;;;;;;;111.10;58.75;;;22.70;75.70;;;;;;4947174;28;86360;-49
2023/09/16 10:18:07;;;;;;;115.35;59.33;;;22.80;76.40;;;;;;4950004;28;86719;-44
2023/09/16 10:20:37;;;;;;;110.75;59.60;;;22.90;75.50;;;;;;4923946;28;86330;-46
2023/09/16 10:23:02;;;;;;;113.70;59.25;;;22.90;75.10;;;;;;4934752;28;85224;-46
2023/09/16 10:25:29;;;;;;;109.85;59.30;;;22.90;75.20;;;;;;4947796;28;87399;-45
2023/09/16 10:28:01;;;;;;;109.97;58.53;;;23.00;74.00;;;;;;4951963;28;87657;-47
2023/09/16 10:30:30;;;;;;;109.97;58.90;;;23.10;75.00;;;;;;4943532;28;89071;-44
2023/09/16 10:32:59;;;;;;;116.47;59.05;;;23.10;74.00;;;;;;4940840;28;86177;-46
2023/09/16 10:35:27;;;;;;;109.85;59.00;;;23.20;73.60;;;;;;4944336;28;84897;-50
2023/09/16 10:37:55;;;;;;;111.13;58.90;;;23.30;72.90;;;;;;4935928;28;85047;-47
2023/09/16 10:40:21;;;;;;;110.20;59.20;;;23.20;74.50;;;;;;4947397;28;85879;-47
2023/09/16 10:42:47;;;;;;;111.55;59.13;;;23.20;74.20;;;;;;4948778;28;85340;-45
2023/09/16 10:45:15;;;;;;;109.05;58.53;;;23.30;74.60;;;;;;4945713;28;85367;-46
2023/09/16 10:47:42;;;;;;;113.65;59.25;;;23.30;73.40;;;;;;4948817;28;86615;-45
2023/09/16 10:50:08;;;;;;;108.72;58.58;;;23.30;74.00;;;;;;4936360;28;90853;-46
2023/09/16 10:53:00;;;;;;;113.20;58.80;;;23.40;72.90;;;;;;4948309;28;85782;-47
2023/09/16 10:55:31;;;;;;;110.78;59.30;;;23.40;73.60;;;;;;4951513;28;86949;-47
2023/09/16 10:58:29;;;;;;;111.95;59.20;;;23.50;73.10;;;;;;4944337;28;85660;-47
2023/09/16 11:00:58;;;;;;;110.45;59.33;;;23.50;74.30;;;;;;4938917;28;86519;-49
2023/09/16 11:03:30;;;;;;;110.95;59.35;;;23.50;72.50;;;;;;4947177;28;85503;-46
2023/09/16 11:06:01;;;;;;;110.50;59.47;;;23.60;71.50;;;;;;4936758;28;90098;-45
2023/09/16 11:08:27;;;;;;;;;;;23.60;71.80;;;;;;4921400;28;90473;-44
2023/09/16 11:10:55;;;;;;;111.05;59.63;;;23.70;72.60;;;;;;4924240;28;86233;-45
2023/09/16 11:13:26;;;;;;;108.05;58.58;;;23.70;72.30;;;;;;4939908;28;85885;-43
2023/09/16 11:15:51;;;;;;;109.10;59.03;;;23.70;71.80;;;;;;4921605;28;86752;-44
2023/09/16 11:18:18;;;;;;;110.55;59.05;;;23.70;72.90;;;;;;4924978;28;86939;-43
2023/09/16 11:20:45;;;;;;;109.97;59.72;;;23.60;72.50;;;;;;4941102;28;87408;-43
2023/09/16 11:23:12;;;;;;;110.78;59.33;;;23.70;74.20;;;;;;4952801;28;87720;-43
2023/09/16 11:25:39;;;;;;;111.95;59.85;;;23.70;73.90;;;;;;4952556;28;87159;-46
2023/09/16 11:28:13;;;;;;;113.78;60.10;;;23.70;73.50;;;;;;4945963;28;87962;-43
2023/09/16 11:30:45;;;;;;;112.07;59.60;;;23.80;72.70;;;;;;4944469;28;87127;-44
2023/09/16 11:33:27;;;;;;;111.63;59.53;;;23.80;72.90;;;;;;4950739;28;86776;-43
2023/09/16 11:36:15;;;;;;;112.57;59.58;;;23.90;71.90;;;;;;4943888;28;89681;-45
2023/09/16 11:39:15;;;;;;;112.57;60.03;;;23.90;72.20;;;;;;4949039;28;85714;-44
2023/09/16 11:41:40;;;;;;;111.50;59.78;;;24.00;71.60;;;;;;4955445;28;85471;-43
2023/09/16 11:44:07;;;;;;;110.35;59.17;;;24.00;71.40;;;;;;4943553;28;85876;-43
2023/09/16 11:46:34;;;;;;;112.03;59.72;;;24.00;71.30;;;;;;4943719;28;87803;-43
2023/09/16 11:49:05;;;;;;;111.43;59.47;;;24.10;72.60;;;;;;4941549;28;85911;-44
2023/09/16 11:51:31;;;;;;;;;;;24.10;72.90;;;;;;4945410;28;87068;-44
2023/09/16 11:53:57;;;;;;;111.47;59.92;;;24.20;71.60;;;;;;4953379;28;85463;-43
2023/09/16 11:56:26;;;;;;;114.00;59.50;;;24.20;71.80;;;;;;4942776;28;86360;-43
2023/09/16 11:58:56;;;;;;;114.30;59.88;;;24.20;70.70;;;;;;4951277;28;86260;-43
2023/09/16 12:01:40;;;;;;;113.07;59.80;;;24.20;70.90;;;;;;4950702;28;85329;-44
2023/09/16 12:04:08;;;;;;;113.50;60.38;;;24.30;71.30;;;;;;4952445;28;85383;-45
2023/09/16 12:06:35;;;;;;;116.50;61.30;;;24.30;72.50;;;;;;4955232;28;85279;-44
2023/09/16 12:09:03;;;;;;;147.45;69.38;;;24.30;72.50;;;;;;4949456;28;87696;-45
2023/09/16 12:11:31;;;;;;;123.38;63.15;;;24.30;72.30;;;;;;4956417;28;86701;-45
2023/09/16 12:13:58;;;;;;;130.93;65.03;;;24.40;72.50;;;;;;4943140;28;84957;-43
2023/09/16 12:16:24;;;;;;;118.28;61.58;;;24.40;72.00;;;;;;4951628;28;88585;-44
2023/09/16 12:18:50;;;;;;;117.07;61.17;;;24.50;71.70;;;;;;4955667;28;86115;-46